Time;durP1;ratioP1;P1;durP2;ratioP2;P2;SDS_P1;SDS_P2;PMS_P1;PMS_P2;Temp;Humidity;BMP_temperature;BMP_pressure;BME280_temperature;BME280_humidity;BME280_pressure;Samples;Min_cycle;Max_cycle;Signal;HPM_P1;HPM_P2
2022/12/23 00:02:01;;;;;;;4.80;2.50;;;9.50;87.30;;;;;;5131847;27;20193;-66
2022/12/23 00:04:28;;;;;;;5.15;2.45;;;9.40;88.20;;;;;;5132858;27;20201;-67
2022/12/23 00:06:56;;;;;;;4.88;2.78;;;9.30;89.00;;;;;;5132627;27;20546;-67
2022/12/23 00:09:23;;;;;;;4.82;2.50;;;9.20;90.00;;;;;;5134329;27;20285;-66
2022/12/23 00:17:20;;;;;;;3.17;1.70;;;9.10;90.00;;;;;;5134059;27;20672;-66
2022/12/23 00:19:47;;;;;;;4.20;1.77;;;9.10;90.00;;;;;;5134118;27;20195;-66
2022/12/23 00:22:14;;;;;;;5.82;2.33;;;9.00;89.90;;;;;;5133484;27;20206;-66
2022/12/23 00:24:41;;;;;;;5.40;2.10;;;9.00;90.20;;;;;;5134080;27;20195;-66
2022/12/23 00:27:08;;;;;;;2.83;1.70;;;9.00;90.30;;;;;;5133555;27;20237;-66
2022/12/23 00:29:37;;;;;;;2.50;1.98;;;9.00;89.40;;;;;;5133783;27;20191;-66
2022/12/23 00:32:04;;;;;;;5.07;2.05;;;9.00;89.70;;;;;;5133769;27;20195;-66
2022/12/23 00:34:32;;;;;;;3.08;1.70;;;9.10;89.70;;;;;;5133613;27;20294;-66
2022/12/23 00:36:59;;;;;;;3.75;1.92;;;9.10;88.60;;;;;;5133818;27;20186;-66
2022/12/23 00:45:14;;;;;;;6.40;2.75;;;8.90;89.40;;;;;;5113313;28;20642;-66
2022/12/23 00:50:26;;;;;;;4.18;1.65;;;8.90;89.80;;;;;;5133947;27;20678;-66
2022/12/23 00:52:53;;;;;;;3.83;1.75;;;8.80;89.50;;;;;;5133453;27;20251;-66
2022/12/23 00:55:20;;;;;;;5.85;1.65;;;8.90;89.20;;;;;;5133434;27;20194;-66
2022/12/23 00:57:47;;;;;;;3.38;1.85;;;8.90;88.90;;;;;;5133227;27;20610;-66
2022/12/23 01:00:16;;;;;;;4.15;2.00;;;8.90;88.60;;;;;;5133722;27;20281;-66
2022/12/23 01:05:37;;;;;;;3.28;1.75;;;8.90;90.00;;;;;;5107520;27;20197;-66
2022/12/23 01:08:06;;;;;;;8.23;1.85;;;8.90;88.90;;;;;;5133324;27;20190;-66
2022/12/23 01:10:35;;;;;;;4.50;2.15;;;9.00;88.90;;;;;;5132597;27;20189;-66
2022/12/23 01:13:02;;;;;;;4.13;1.80;;;9.00;89.30;;;;;;5133235;27;20193;-67
2022/12/23 01:15:31;;;;;;;5.18;1.63;;;9.00;89.80;;;;;;5132898;27;20484;-67
2022/12/23 01:17:58;;;;;;;3.38;2.10;;;9.00;90.30;;;;;;5133200;27;20187;-66
2022/12/23 01:20:25;;;;;;;7.43;2.10;;;8.90;90.50;;;;;;5132793;27;20183;-67
2022/12/23 01:22:53;;;;;;;4.18;2.25;;;8.90;90.60;;;;;;5133204;27;20194;-66
2022/12/23 01:25:20;;;;;;;3.67;1.95;;;8.80;90.90;;;;;;5132364;27;20191;-66
2022/12/23 01:27:47;;;;;;;3.75;1.40;;;8.80;91.20;;;;;;5112445;28;20226;-67
2022/12/23 01:30:14;;;;;;;4.18;1.95;;;8.80;91.30;;;;;;5122118;27;20183;-66
2022/12/23 01:32:43;;;;;;;5.28;2.00;;;8.70;91.40;;;;;;5133239;27;20205;-66
2022/12/23 01:35:10;;;;;;;3.75;2.33;;;8.80;91.50;;;;;;5134798;27;20266;-66
2022/12/23 01:37:37;;;;;;;3.22;2.13;;;8.80;91.50;;;;;;5137076;27;20218;-66
2022/12/23 01:40:05;;;;;;;4.05;2.85;;;8.80;91.50;;;;;;5136742;27;20186;-67
2022/12/23 01:45:17;;;;;;;2.40;1.40;;;8.90;91.90;;;;;;5134874;27;20269;-67
2022/12/23 01:47:50;;;;;;;4.70;1.83;;;8.90;91.90;;;;;;5137153;27;20218;-66
2022/12/23 01:50:22;;;;;;;3.45;1.77;;;8.90;92.10;;;;;;5136833;27;20240;-66
2022/12/23 01:52:59;;;;;;;3.50;1.88;;;8.80;92.30;;;;;;5137034;27;20667;-66
2022/12/23 01:55:29;;;;;;;2.50;1.30;;;8.80;92.50;;;;;;5136639;27;20196;-67
2022/12/23 01:58:03;;;;;;;2.88;1.45;;;8.80;93.40;;;;;;5137205;27;20186;-66
2022/12/23 02:11:43;;;;;;;1.50;0.57;;;9.30;99.90;;;;;;5136742;27;20197;-66
2022/12/23 02:17:15;;;;;;;1.50;0.60;;;9.60;99.90;;;;;;5136548;27;20202;-66
2022/12/23 02:20:06;;;;;;;1.90;0.90;;;9.60;99.90;;;;;;5135996;27;20191;-66
2022/12/23 02:22:49;;;;;;;1.60;0.60;;;9.70;99.90;;;;;;5136036;27;20197;-66
2022/12/23 02:25:31;;;;;;;1.75;0.80;;;9.80;99.90;;;;;;5136126;27;20251;-66
2022/12/23 02:28:16;;;;;;;1.60;0.80;;;9.90;99.90;;;;;;5136398;27;20233;-66
2022/12/23 02:30:48;;;;;;;1.52;0.57;;;10.00;99.90;;;;;;5134916;27;20228;-66
2022/12/23 02:33:42;;;;;;;1.60;0.60;;;10.10;99.90;;;;;;5136509;27;20184;-66
2022/12/23 02:36:31;;;;;;;1.60;0.60;;;10.20;99.90;;;;;;5133029;27;20607;-66
2022/12/23 02:39:05;;;;;;;2.63;0.65;;;10.20;99.90;;;;;;5136118;27;20604;-67
2022/12/23 02:41:42;;;;;;;1.70;0.73;;;10.20;99.90;;;;;;5115622;28;20200;-67
2022/12/23 02:44:17;;;;;;;1.80;0.75;;;10.30;99.90;;;;;;5115273;27;20270;-67
2022/12/23 02:46:50;;;;;;;1.60;0.60;;;10.30;99.90;;;;;;5115172;28;20226;-66
2022/12/23 02:49:23;;;;;;;1.70;0.75;;;10.40;99.90;;;;;;5115659;27;20552;-66
2022/12/23 02:51:54;;;;;;;1.50;0.63;;;10.40;99.90;;;;;;5136007;27;20184;-67
2022/12/23 02:54:26;;;;;;;2.00;0.60;;;10.40;99.90;;;;;;5135255;27;21222;-66
2022/12/23 02:56:55;;;;;;;3.65;0.70;;;10.50;99.90;;;;;;5136225;27;20791;-66
2022/12/23 02:59:25;;;;;;;2.17;0.63;;;10.50;99.90;;;;;;5135303;27;20237;-66
2022/12/23 03:01:55;;;;;;;1.60;0.65;;;10.50;99.90;;;;;;5135669;27;20208;-66
2022/12/23 03:04:23;;;;;;;2.05;1.17;;;10.50;99.90;;;;;;5135526;27;20587;-66
2022/12/23 03:06:54;;;;;;;2.22;0.80;;;10.60;99.90;;;;;;5135673;27;20315;-66
2022/12/23 03:09:30;;;;;;;1.60;0.60;;;10.60;99.90;;;;;;5135347;27;20215;-66
2022/12/23 03:12:05;;;;;;;2.00;0.90;;;10.60;99.90;;;;;;5135448;27;20429;-66
2022/12/23 03:14:54;;;;;;;2.83;0.60;;;10.70;99.90;;;;;;5115036;28;20457;-66
2022/12/23 03:17:35;;;;;;;1.70;0.60;;;10.70;99.90;;;;;;5116695;27;20441;-66
2022/12/23 03:20:10;;;;;;;1.53;0.60;;;10.70;99.70;;;;;;5135302;27;20191;-66
2022/12/23 03:22:45;;;;;;;1.60;0.70;;;10.80;99.70;;;;;;5134922;27;20433;-67
2022/12/23 03:25:19;;;;;;;1.60;0.60;;;10.80;99.50;;;;;;5135043;27;20213;-66
2022/12/23 03:27:52;;;;;;;1.60;0.50;;;10.80;99.50;;;;;;5134735;27;20214;-70
2022/12/23 03:30:20;;;;;;;1.50;0.60;;;10.80;99.50;;;;;;5135179;27;20891;-66
2022/12/23 03:32:53;;;;;;;1.50;0.53;;;10.80;99.50;;;;;;5134570;27;20274;-66
2022/12/23 03:35:30;;;;;;;2.23;0.80;;;10.90;99.40;;;;;;5134891;27;20521;-66
2022/12/23 03:38:03;;;;;;;1.50;0.60;;;10.90;99.50;;;;;;5134876;27;20838;-67
2022/12/23 03:40:35;;;;;;;1.70;0.60;;;10.90;99.40;;;;;;5134787;27;20429;-66
2022/12/23 03:43:07;;;;;;;3.08;0.70;;;10.90;99.20;;;;;;5134436;27;20463;-66
2022/12/23 03:45:42;;;;;;;1.70;0.60;;;11.00;99.10;;;;;;5134764;27;20195;-66
2022/12/23 03:48:19;;;;;;;1.80;0.70;;;11.00;99.10;;;;;;5134319;27;20606;-66
2022/12/23 03:50:51;;;;;;;2.43;0.70;;;11.00;99.00;;;;;;5134766;27;20444;-66
2022/12/23 03:53:22;;;;;;;1.50;0.50;;;11.00;99.10;;;;;;5134333;27;20493;-66
2022/12/23 03:55:54;;;;;;;1.70;0.70;;;11.00;99.20;;;;;;5134834;27;20927;-66
2022/12/23 03:58:33;;;;;;;1.60;0.70;;;11.00;99.20;;;;;;5133727;27;20442;-66
2022/12/23 04:01:10;;;;;;;1.50;0.70;;;11.00;99.10;;;;;;5134587;27;20973;-67
2022/12/23 04:03:43;;;;;;;1.50;0.60;;;11.00;99.20;;;;;;5134326;27;20984;-66
2022/12/23 04:06:16;;;;;;;1.60;0.60;;;11.00;99.00;;;;;;5134442;27;20422;-66
2022/12/23 04:08:46;;;;;;;1.53;0.50;;;11.00;98.90;;;;;;5134647;27;20480;-66
2022/12/23 04:11:13;;;;;;;2.10;0.70;;;11.00;99.00;;;;;;5134198;27;20473;-66
2022/12/23 04:13:41;;;;;;;1.83;0.80;;;10.90;99.20;;;;;;5134504;27;20432;-66
2022/12/23 04:16:08;;;;;;;1.97;0.60;;;10.90;99.30;;;;;;5134240;27;20494;-67
2022/12/23 04:18:35;;;;;;;1.60;0.60;;;10.90;99.30;;;;;;5134635;27;20429;-66
2022/12/23 04:21:04;;;;;;;1.60;0.60;;;11.00;99.20;;;;;;5133883;27;20445;-66
2022/12/23 04:23:31;;;;;;;1.50;0.60;;;10.90;99.30;;;;;;5134488;27;20841;-67
2022/12/23 04:25:59;;;;;;;1.50;0.50;;;10.90;99.40;;;;;;5133979;27;20438;-66
2022/12/23 04:28:26;;;;;;;1.50;0.60;;;10.90;99.60;;;;;;5134275;27;20504;-66
2022/12/23 04:30:53;;;;;;;1.43;0.57;;;10.90;99.60;;;;;;5133797;27;20441;-66
2022/12/23 04:33:20;;;;;;;1.80;0.57;;;10.90;99.90;;;;;;5134166;27;20464;-66
2022/12/23 04:35:47;;;;;;;1.60;0.60;;;10.80;99.90;;;;;;5133759;27;20453;-66
2022/12/23 04:38:16;;;;;;;1.47;0.53;;;10.80;99.90;;;;;;5133867;27;20429;-66
2022/12/23 04:40:46;;;;;;;1.50;0.60;;;10.90;99.90;;;;;;5133806;27;20851;-66
2022/12/23 04:43:14;;;;;;;1.55;0.60;;;10.90;99.90;;;;;;5133558;27;20990;-66
2022/12/23 04:45:41;;;;;;;1.70;0.80;;;10.90;99.90;;;;;;5133659;27;20188;-66
2022/12/23 04:48:09;;;;;;;1.60;0.60;;;10.90;99.90;;;;;;5134165;27;20223;-66
2022/12/23 04:50:36;;;;;;;1.60;0.50;;;10.90;99.90;;;;;;5133371;27;20591;-66
2022/12/23 04:53:03;;;;;;;1.47;0.53;;;11.00;99.90;;;;;;5133028;27;20516;-66
2022/12/23 04:55:32;;;;;;;1.50;0.57;;;11.00;99.90;;;;;;5133352;27;20437;-66
2022/12/23 04:57:59;;;;;;;1.67;0.70;;;11.00;99.90;;;;;;5133374;27;20528;-66
2022/12/23 05:00:26;;;;;;;1.70;0.87;;;11.00;99.90;;;;;;5133431;27;20468;-66
2022/12/23 05:02:53;;;;;;;1.50;0.60;;;11.10;99.90;;;;;;5133442;27;20524;-66
2022/12/23 05:05:20;;;;;;;1.60;0.70;;;11.10;99.90;;;;;;5133929;27;20493;-66
2022/12/23 05:07:49;;;;;;;1.50;0.65;;;11.10;99.90;;;;;;5132874;27;20469;-67
2022/12/23 05:10:17;;;;;;;1.50;0.67;;;11.10;99.90;;;;;;5132580;27;20192;-67
2022/12/23 05:12:45;;;;;;;1.65;0.70;;;11.20;99.90;;;;;;5132825;27;20448;-67
2022/12/23 05:15:12;;;;;;;1.63;0.80;;;11.20;99.90;;;;;;5133745;27;20195;-66
2022/12/23 05:17:39;;;;;;;1.83;0.57;;;11.10;99.90;;;;;;5132926;27;20861;-67
2022/12/23 05:20:08;;;;;;;1.75;0.70;;;11.10;99.90;;;;;;5133339;27;20441;-66
2022/12/23 05:22:35;;;;;;;1.50;0.50;;;11.10;99.90;;;;;;5132840;27;20645;-66
2022/12/23 05:25:02;;;;;;;1.63;0.80;;;11.10;99.90;;;;;;5112949;28;20431;-66
2022/12/23 05:27:29;;;;;;;1.50;0.60;;;11.10;99.90;;;;;;5118974;28;20483;-66
2022/12/23 05:30:00;;;;;;;1.60;0.50;;;11.20;99.90;;;;;;5133315;27;20429;-66
2022/12/23 05:32:27;;;;;;;1.60;0.60;;;11.10;99.90;;;;;;5132855;27;20436;-66
2022/12/23 05:34:54;;;;;;;1.50;0.57;;;11.20;99.90;;;;;;5132970;27;20464;-66
2022/12/23 05:37:21;;;;;;;1.80;0.60;;;11.30;99.90;;;;;;5132972;27;20452;-67
2022/12/23 05:39:49;;;;;;;1.50;0.60;;;11.30;99.90;;;;;;5132794;27;20478;-66
2022/12/23 05:42:18;;;;;;;1.70;0.70;;;11.30;99.90;;;;;;5133101;27;20826;-66
2022/12/23 05:44:45;;;;;;;1.50;0.77;;;11.30;99.90;;;;;;5132752;27;20433;-66
2022/12/23 05:47:14;;;;;;;1.50;0.50;;;11.30;99.90;;;;;;5133131;27;20524;-67
2022/12/23 05:49:41;;;;;;;1.57;0.60;;;11.30;99.90;;;;;;5131934;28;20429;-66
2022/12/23 05:52:08;;;;;;;1.60;0.70;;;11.40;99.90;;;;;;5132909;27;20437;-66
2022/12/23 05:54:35;;;;;;;1.70;0.70;;;11.40;99.90;;;;;;5132550;27;20993;-66
2022/12/23 05:57:02;;;;;;;1.63;0.60;;;11.40;99.90;;;;;;5133007;27;21256;-67
2022/12/23 05:59:30;;;;;;;1.50;0.70;;;11.40;99.90;;;;;;5132397;27;20935;-67
2022/12/23 06:01:57;;;;;;;1.60;0.63;;;11.50;99.90;;;;;;5133189;27;20903;-67
2022/12/23 06:04:26;;;;;;;1.60;0.60;;;11.50;99.90;;;;;;5132409;28;20436;-67
2022/12/23 06:06:53;;;;;;;1.83;0.77;;;11.50;99.90;;;;;;5132857;27;20429;-66
2022/12/23 06:09:20;;;;;;;1.70;0.70;;;11.50;99.90;;;;;;5128539;27;20488;-67
2022/12/23 06:11:47;;;;;;;1.60;0.60;;;11.60;99.90;;;;;;5131511;28;20434;-67
2022/12/23 06:14:14;;;;;;;2.73;0.73;;;11.60;99.90;;;;;;5131035;27;20520;-67
2022/12/23 06:16:42;;;;;;;1.47;0.50;;;11.60;99.90;;;;;;5130794;27;20440;-67
2022/12/23 06:19:09;;;;;;;1.50;0.60;;;11.60;99.90;;;;;;5130953;27;20991;-67
2022/12/23 06:21:38;;;;;;;1.70;0.60;;;11.60;99.90;;;;;;5133407;27;20429;-66
2022/12/23 06:24:05;;;;;;;2.07;0.80;;;11.60;99.90;;;;;;5134655;27;20432;-67
2022/12/23 06:26:34;;;;;;;1.50;0.70;;;11.60;99.90;;;;;;5134828;27;20425;-67
2022/12/23 06:29:01;;;;;;;1.50;0.60;;;11.60;99.90;;;;;;5134483;27;20480;-67
2022/12/23 06:31:29;;;;;;;2.20;0.90;;;11.60;99.90;;;;;;5134772;27;21135;-67
2022/12/23 06:33:56;;;;;;;1.60;0.60;;;11.60;99.90;;;;;;5134250;27;20433;-67
2022/12/23 06:36:23;;;;;;;2.63;0.70;;;11.60;99.90;;;;;;5130555;27;20553;-67
2022/12/23 06:38:52;;;;;;;2.43;0.60;;;11.60;99.90;;;;;;5134683;27;20486;-67
2022/12/23 06:41:19;;;;;;;1.60;0.60;;;11.60;99.90;;;;;;5133380;27;20425;-67
2022/12/23 06:43:47;;;;;;;1.90;0.80;;;11.60;99.90;;;;;;5133212;27;20426;-67
2022/12/23 06:46:14;;;;;;;1.60;0.70;;;11.70;99.90;;;;;;5134608;27;21146;-67
2022/12/23 06:48:41;;;;;;;2.60;0.67;;;11.70;99.90;;;;;;5134129;27;20481;-67
2022/12/23 06:51:09;;;;;;;1.60;0.80;;;11.70;99.90;;;;;;5134475;27;20923;-67
2022/12/23 06:53:37;;;;;;;1.50;0.57;;;11.70;99.90;;;;;;5134021;27;20452;-67
2022/12/23 06:56:07;;;;;;;1.70;0.70;;;11.70;99.90;;;;;;5130136;27;20434;-67
2022/12/23 06:58:34;;;;;;;1.63;0.70;;;11.80;99.90;;;;;;5133707;27;20837;-67
2022/12/23 07:01:01;;;;;;;2.27;0.90;;;11.80;99.90;;;;;;5133307;27;20954;-67
2022/12/23 07:03:28;;;;;;;1.63;0.70;;;11.70;99.90;;;;;;5128372;27;20915;-68
2022/12/23 07:05:55;;;;;;;2.20;1.00;;;11.80;99.90;;;;;;5133335;27;20529;-67
2022/12/23 07:08:22;;;;;;;3.57;0.67;;;11.80;99.90;;;;;;5133894;27;20534;-68
2022/12/23 07:10:58;;;;;;;1.70;0.90;;;11.80;99.90;;;;;;5132157;27;20469;-67
2022/12/23 07:13:27;;;;;;;2.87;1.00;;;11.80;99.90;;;;;;5130540;27;20436;-67
2022/12/23 07:15:54;;;;;;;1.73;0.70;;;11.80;99.90;;;;;;5132937;27;20438;-67
2022/12/23 07:18:22;;;;;;;1.70;0.80;;;11.80;99.90;;;;;;5132670;27;20942;-67
2022/12/23 07:20:49;;;;;;;2.07;0.70;;;11.80;99.90;;;;;;5133404;27;20813;-67
2022/12/23 07:23:17;;;;;;;2.87;0.80;;;11.80;99.90;;;;;;5132893;27;20566;-67
2022/12/23 07:25:44;;;;;;;1.60;0.60;;;11.80;99.90;;;;;;5132706;27;20434;-68
2022/12/23 07:28:11;;;;;;;2.30;1.03;;;11.80;99.90;;;;;;5132085;27;20468;-67
2022/12/23 07:30:40;;;;;;;1.80;0.70;;;11.80;99.90;;;;;;5133266;27;20471;-67
2022/12/23 07:33:07;;;;;;;1.80;0.80;;;11.80;99.90;;;;;;5131689;27;20440;-67
2022/12/23 07:35:34;;;;;;;2.13;0.80;;;11.90;99.90;;;;;;5133123;27;20464;-67
2022/12/23 07:38:01;;;;;;;1.80;0.90;;;11.80;99.90;;;;;;5131501;27;20470;-67
2022/12/23 07:40:28;;;;;;;1.60;0.63;;;11.80;99.90;;;;;;5133097;27;20461;-67
2022/12/23 07:42:57;;;;;;;1.60;0.60;;;11.90;99.90;;;;;;5132944;27;20494;-67
2022/12/23 07:45:25;;;;;;;1.60;0.67;;;11.90;99.90;;;;;;5132946;27;20448;-67
2022/12/23 07:47:56;;;;;;;1.90;0.70;;;11.90;99.90;;;;;;5128813;27;20430;-68
2022/12/23 07:50:27;;;;;;;1.50;0.70;;;11.90;99.90;;;;;;5133464;27;20438;-67
2022/12/23 07:52:54;;;;;;;3.10;0.60;;;11.90;99.90;;;;;;5133189;27;20915;-67
2022/12/23 07:55:22;;;;;;;3.17;0.73;;;11.90;99.90;;;;;;5128815;27;20520;-67
2022/12/23 07:57:50;;;;;;;1.60;0.80;;;12.00;99.90;;;;;;5129453;27;20434;-67
2022/12/23 08:00:18;;;;;;;1.90;0.73;;;12.00;99.90;;;;;;5132294;27;20441;-68
2022/12/23 08:02:45;;;;;;;1.90;1.10;;;12.00;99.90;;;;;;5133086;27;20524;-68
2022/12/23 08:05:15;;;;;;;1.60;0.80;;;12.00;99.90;;;;;;5133149;27;20472;-67
2022/12/23 08:07:43;;;;;;;2.33;1.03;;;12.00;99.90;;;;;;5132839;27;20433;-67
2022/12/23 08:10:15;;;;;;;4.93;2.13;;;12.00;99.90;;;;;;5128983;27;20524;-68
2022/12/23 08:12:46;;;;;;;4.23;2.03;;;12.00;99.90;;;;;;5133143;27;20437;-68
2022/12/23 08:15:13;;;;;;;7.27;2.20;;;12.00;99.90;;;;;;5132562;27;20426;-68
2022/12/23 08:17:40;;;;;;;2.67;1.17;;;11.90;99.90;;;;;;5132915;27;20525;-67
2022/12/23 08:20:08;;;;;;;2.67;1.03;;;12.00;99.90;;;;;;5132922;27;20535;-68
2022/12/23 08:22:36;;;;;;;2.10;0.80;;;11.90;99.90;;;;;;5132999;27;20529;-68
2022/12/23 08:25:04;;;;;;;4.90;0.67;;;11.90;99.90;;;;;;5132526;27;20525;-67
2022/12/23 08:27:31;;;;;;;1.70;0.60;;;12.00;99.90;;;;;;5132796;27;20494;-68
2022/12/23 08:29:58;;;;;;;1.70;0.80;;;12.00;99.90;;;;;;5132628;27;20485;-68
2022/12/23 08:32:27;;;;;;;1.60;0.60;;;12.00;99.90;;;;;;5132327;27;20469;-68
2022/12/23 08:34:56;;;;;;;1.67;0.63;;;12.00;99.90;;;;;;5132263;27;20464;-68
2022/12/23 08:37:23;;;;;;;2.17;0.80;;;12.00;99.90;;;;;;5132646;27;20520;-67
2022/12/23 08:39:52;;;;;;;1.50;0.70;;;12.00;99.90;;;;;;5132494;27;20524;-67
2022/12/23 08:42:19;;;;;;;1.90;0.70;;;12.00;99.90;;;;;;5129593;27;20831;-68
2022/12/23 08:44:46;;;;;;;1.60;0.63;;;12.00;99.90;;;;;;5131139;27;20457;-67
2022/12/23 08:47:13;;;;;;;2.47;0.60;;;12.10;99.90;;;;;;5131776;27;20876;-68
2022/12/23 08:49:40;;;;;;;2.57;0.70;;;12.10;99.90;;;;;;5132173;27;20908;-67
2022/12/23 08:52:07;;;;;;;1.60;0.53;;;12.10;99.90;;;;;;5132059;27;20533;-67
2022/12/23 08:54:34;;;;;;;1.50;0.60;;;12.20;99.90;;;;;;5131467;27;20457;-67
2022/12/23 08:57:02;;;;;;;1.70;0.70;;;12.20;99.90;;;;;;5130873;27;20911;-67
2022/12/23 08:59:29;;;;;;;2.00;0.80;;;12.30;99.90;;;;;;5132655;27;20437;-67
2022/12/23 09:02:02;;;;;;;1.57;0.70;;;12.30;99.90;;;;;;5132446;27;20516;-68
2022/12/23 09:04:29;;;;;;;1.70;0.60;;;12.30;99.90;;;;;;5132339;27;20472;-67
2022/12/23 09:06:56;;;;;;;1.90;0.60;;;12.30;99.90;;;;;;5132293;27;20429;-67
2022/12/23 09:09:23;;;;;;;2.20;0.67;;;12.30;99.90;;;;;;5132445;27;21090;-67
2022/12/23 09:11:50;;;;;;;2.00;1.00;;;12.40;99.90;;;;;;5131901;27;20533;-67
2022/12/23 09:14:18;;;;;;;2.37;0.80;;;12.60;99.90;;;;;;5132190;27;20602;-67
2022/12/23 09:16:45;;;;;;;1.73;0.67;;;12.70;99.90;;;;;;5132215;27;20496;-67
2022/12/23 09:19:12;;;;;;;5.20;0.70;;;12.80;99.90;;;;;;5132092;27;20445;-67
2022/12/23 09:21:39;;;;;;;2.83;1.13;;;12.90;99.90;;;;;;5132030;27;20452;-67
2022/12/23 09:24:06;;;;;;;2.77;1.07;;;13.00;99.90;;;;;;5132109;27;20520;-68
2022/12/23 09:26:33;;;;;;;1.83;1.10;;;13.10;99.90;;;;;;5132137;27;20494;-67
2022/12/23 09:29:01;;;;;;;2.13;1.10;;;13.30;99.90;;;;;;5132108;27;20519;-67
2022/12/23 09:31:29;;;;;;;2.30;0.90;;;13.40;99.90;;;;;;5132061;28;20802;-67
2022/12/23 09:33:56;;;;;;;1.63;0.80;;;13.50;99.90;;;;;;5132119;27;20434;-67
2022/12/23 09:36:25;;;;;;;2.20;0.80;;;13.60;99.90;;;;;;5132369;27;20555;-68
2022/12/23 09:38:54;;;;;;;2.03;1.07;;;13.70;99.90;;;;;;5131680;27;20476;-67
2022/12/23 09:41:46;;;;;;;2.20;0.90;;;13.70;99.90;;;;;;5128048;28;20951;-67
2022/12/23 09:44:32;;;;;;;1.50;0.60;;;13.80;99.90;;;;;;5127986;28;20964;-68
2022/12/23 09:47:04;;;;;;;2.00;0.90;;;13.80;99.90;;;;;;5131521;27;20498;-67
2022/12/23 09:49:32;;;;;;;2.93;0.73;;;13.80;99.90;;;;;;5131960;27;20878;-67
2022/12/23 09:52:02;;;;;;;2.83;0.90;;;13.80;99.90;;;;;;5131890;27;20441;-67
2022/12/23 09:54:37;;;;;;;2.57;1.17;;;13.70;99.90;;;;;;5131406;27;20457;-67
2022/12/23 09:57:16;;;;;;;2.20;1.00;;;13.70;99.90;;;;;;5135388;27;20440;-67
2022/12/23 09:59:59;;;;;;;1.67;0.60;;;13.60;99.90;;;;;;5135610;27;20468;-67
2022/12/23 10:02:42;;;;;;;1.60;0.60;;;13.60;99.80;;;;;;5136075;27;20460;-68
2022/12/23 10:05:21;;;;;;;2.03;0.80;;;13.50;99.80;;;;;;5135589;27;20556;-68
2022/12/23 10:07:53;;;;;;;1.60;0.67;;;13.50;99.90;;;;;;5133718;27;20489;-68
2022/12/23 10:10:30;;;;;;;3.90;1.20;;;13.50;99.80;;;;;;5135681;27;20534;-67
2022/12/23 10:13:00;;;;;;;1.70;0.70;;;13.40;99.80;;;;;;5135078;27;20478;-68
2022/12/23 10:15:33;;;;;;;4.60;0.87;;;13.40;99.90;;;;;;5135607;27;20472;-67
2022/12/23 10:18:06;;;;;;;2.37;0.70;;;13.50;99.80;;;;;;5135494;27;20468;-67
2022/12/23 10:20:40;;;;;;;1.93;1.03;;;13.50;99.80;;;;;;5130941;27;20437;-68
2022/12/23 10:23:15;;;;;;;2.00;0.70;;;13.40;99.40;;;;;;5135154;27;20516;-68
2022/12/23 10:25:49;;;;;;;2.33;1.20;;;13.40;99.30;;;;;;5134920;27;20685;-67
2022/12/23 10:28:16;;;;;;;2.00;1.00;;;13.40;99.90;;;;;;5135169;27;20939;-67
2022/12/23 10:30:49;;;;;;;1.80;0.63;;;13.40;99.40;;;;;;5134967;27;20476;-67
2022/12/23 10:33:22;;;;;;;1.50;0.70;;;13.40;99.40;;;;;;5130877;27;20445;-68
2022/12/23 10:36:00;;;;;;;1.50;0.50;;;13.40;99.50;;;;;;5134882;27;20974;-68
2022/12/23 10:38:41;;;;;;;2.43;0.60;;;13.40;99.40;;;;;;5134967;27;20472;-68
2022/12/23 10:41:16;;;;;;;1.47;0.50;;;13.40;99.20;;;;;;5134866;27;20493;-67
2022/12/23 10:44:04;;;;;;;1.60;0.60;;;13.40;99.10;;;;;;5131271;27;20437;-67
2022/12/23 10:46:39;;;;;;;1.60;0.70;;;13.40;99.00;;;;;;5132996;27;20932;-67
2022/12/23 10:49:28;;;;;;;1.97;0.70;;;13.40;98.80;;;;;;5134798;27;20504;-67
2022/12/23 10:51:58;;;;;;;2.87;0.70;;;13.30;99.40;;;;;;5135000;27;20437;-68
2022/12/23 10:54:29;;;;;;;1.70;0.80;;;13.40;99.10;;;;;;5134649;27;20521;-68
2022/12/23 10:56:56;;;;;;;1.83;0.90;;;13.40;99.30;;;;;;5131022;27;20472;-67
2022/12/23 10:59:30;;;;;;;1.60;0.70;;;13.40;98.80;;;;;;5134516;27;20529;-67
2022/12/23 11:02:04;;;;;;;1.63;0.70;;;13.40;98.80;;;;;;5134194;27;20476;-68
2022/12/23 11:04:36;;;;;;;1.90;0.80;;;13.40;98.80;;;;;;5131675;27;20456;-68
2022/12/23 11:07:04;;;;;;;2.23;0.93;;;13.50;98.80;;;;;;5134557;27;20430;-67
2022/12/23 11:09:47;;;;;;;1.70;0.80;;;13.40;98.60;;;;;;5134066;27;20899;-67
2022/12/23 11:12:14;;;;;;;1.60;0.80;;;13.40;98.70;;;;;;5134210;27;20488;-67
2022/12/23 11:14:49;;;;;;;1.90;0.77;;;13.40;98.80;;;;;;5133637;27;20525;-68
2022/12/23 11:17:22;;;;;;;2.50;0.80;;;13.40;98.80;;;;;;5134298;27;20465;-67
2022/12/23 11:20:07;;;;;;;1.70;0.70;;;13.30;98.90;;;;;;5134067;27;20434;-68
2022/12/23 11:22:34;;;;;;;2.00;1.30;;;13.20;98.80;;;;;;5132493;27;20516;-67
2022/12/23 11:25:25;;;;;;;3.17;1.13;;;13.20;99.30;;;;;;5133719;27;20441;-67
2022/12/23 11:27:56;;;;;;;1.77;0.83;;;13.10;99.50;;;;;;5133491;27;20441;-68
2022/12/23 11:30:26;;;;;;;2.33;1.10;;;;;;;;;;5130047;27;20481;-68
2022/12/23 11:32:56;;;;;;;2.07;1.00;;;13.00;99.30;;;;;;5133890;27;20433;-68
2022/12/23 11:35:35;;;;;;;3.40;1.33;;;12.90;99.90;;;;;;5133648;27;20464;-68
2022/12/23 11:38:03;;;;;;;2.00;0.90;;;12.90;99.90;;;;;;5127694;27;20560;-68
2022/12/23 11:40:33;;;;;;;1.93;0.80;;;12.90;99.80;;;;;;5133549;27;20872;-68
2022/12/23 11:43:03;;;;;;;2.30;1.40;;;12.80;99.90;;;;;;5133247;27;20520;-68
2022/12/23 11:45:33;;;;;;;2.83;1.30;;;12.80;99.90;;;;;;5133559;27;20452;-68
2022/12/23 11:48:00;;;;;;;2.07;1.10;;;12.80;99.90;;;;;;5133216;27;20465;-68
2022/12/23 11:50:32;;;;;;;2.30;1.00;;;12.80;99.90;;;;;;5132850;27;20997;-68
2022/12/23 11:53:12;;;;;;;3.10;1.10;;;12.80;99.90;;;;;;5132212;27;20469;-68
2022/12/23 11:55:48;;;;;;;1.90;0.83;;;12.80;99.90;;;;;;5132068;27;20429;-68
2022/12/23 11:58:22;;;;;;;3.63;1.00;;;12.80;99.90;;;;;;5133238;27;20472;-67
2022/12/23 12:00:55;;;;;;;1.87;1.07;;;12.80;99.90;;;;;;5132595;27;20480;-68
2022/12/23 12:03:27;;;;;;;2.43;1.10;;;12.80;99.90;;;;;;5132984;27;20556;-67
2022/12/23 12:05:59;;;;;;;2.60;1.33;;;12.80;99.90;;;;;;5133100;27;20444;-68
2022/12/23 12:08:31;;;;;;;4.07;1.87;;;12.90;99.90;;;;;;5127213;27;20469;-68
2022/12/23 12:11:05;;;;;;;4.03;1.90;;;12.90;99.90;;;;;;5133401;27;20545;-67
2022/12/23 12:13:37;;;;;;;2.20;1.43;;;12.90;99.90;;;;;;5132011;27;20526;-68
2022/12/23 12:16:22;;;;;;;3.40;2.47;;;12.90;99.90;;;;;;5132819;27;20465;-68
2022/12/23 12:18:51;;;;;;;9.17;6.77;;;13.00;99.90;;;;;;5132265;27;20935;-67
2022/12/23 12:21:24;;;;;;;7.33;5.40;;;13.00;99.90;;;;;;5132513;27;20433;-68
2022/12/23 12:23:54;;;;;;;2.33;1.70;;;13.00;99.90;;;;;;5132202;27;20528;-67
2022/12/23 12:26:27;;;;;;;5.73;3.83;;;12.90;99.90;;;;;;5128264;27;20517;-67
2022/12/23 12:28:58;;;;;;;5.67;2.60;;;12.90;99.90;;;;;;5132777;27;20521;-68
2022/12/23 12:31:31;;;;;;;2.60;1.43;;;12.80;99.90;;;;;;5132972;27;20596;-68
2022/12/23 12:34:11;;;;;;;3.00;1.33;;;12.70;99.90;;;;;;5128794;27;20558;-68
2022/12/23 12:36:46;;;;;;;3.93;2.47;;;12.50;99.90;;;;;;5130822;27;20461;-68
2022/12/23 12:39:19;;;;;;;4.43;2.90;;;12.50;99.90;;;;;;5132129;27;20511;-68
2022/12/23 12:41:54;;;;;;;5.50;2.37;;;12.50;99.90;;;;;;5132274;27;20516;-68
2022/12/23 12:44:34;;;;;;;3.33;2.40;;;12.50;99.90;;;;;;5132344;27;20441;-68
2022/12/23 12:47:06;;;;;;;2.60;1.70;;;12.50;99.90;;;;;;5131955;27;20460;-68
2022/12/23 12:49:40;;;;;;;2.30;1.50;;;12.50;99.90;;;;;;5131785;27;20531;-68
2022/12/23 12:52:13;;;;;;;2.73;1.80;;;12.40;99.90;;;;;;5131741;27;20444;-68
2022/12/23 12:54:47;;;;;;;3.97;1.97;;;12.30;99.90;;;;;;5127480;27;20518;-68
2022/12/23 12:57:17;;;;;;;2.60;1.60;;;12.30;99.90;;;;;;5132172;27;20464;-67
2022/12/23 12:59:45;;;;;;;2.43;1.10;;;12.20;99.90;;;;;;5131879;27;20858;-68
2022/12/23 13:02:42;;;;;;;2.47;1.10;;;12.20;99.90;;;;;;5132443;27;20472;-68
2022/12/23 13:05:19;;;;;;;2.60;1.23;;;12.20;99.90;;;;;;5132606;27;20444;-68
2022/12/23 13:08:00;;;;;;;3.37;1.43;;;12.20;99.90;;;;;;5131825;27;20490;-68
2022/12/23 13:10:38;;;;;;;3.40;1.50;;;12.20;99.90;;;;;;5132397;27;20483;-68
2022/12/23 13:13:16;;;;;;;3.70;2.13;;;12.10;99.90;;;;;;5131886;27;20429;-68
2022/12/23 13:15:49;;;;;;;4.23;2.60;;;12.10;99.90;;;;;;5132302;27;20505;-68
2022/12/23 13:18:26;;;;;;;4.00;2.00;;;12.10;99.90;;;;;;5131825;27;20481;-68
2022/12/23 13:21:00;;;;;;;3.77;2.80;;;12.20;99.90;;;;;;5132314;27;20509;-68
2022/12/23 13:23:35;;;;;;;3.33;2.10;;;12.20;99.90;;;;;;5132002;27;20489;-68
2022/12/23 13:26:09;;;;;;;4.23;2.20;;;12.20;99.90;;;;;;5132307;27;20465;-68
2022/12/23 13:28:44;;;;;;;4.30;2.30;;;12.10;99.90;;;;;;5131540;27;20469;-68
2022/12/23 13:31:20;;;;;;;3.67;2.00;;;12.10;99.90;;;;;;5134151;27;20579;-68
2022/12/23 13:33:57;;;;;;;4.50;2.73;;;12.10;99.90;;;;;;5136302;27;20519;-68
2022/12/23 13:36:40;;;;;;;4.67;2.37;;;12.10;99.90;;;;;;5136643;27;21063;-68
2022/12/23 13:39:24;;;;;;;7.27;2.23;;;12.00;99.90;;;;;;5132439;27;20425;-67
2022/12/23 13:41:53;;;;;;;4.60;2.30;;;12.10;99.90;;;;;;5136061;27;20516;-68